createdAt,value
2022-09-29T00:00:30.062Z,2.10
2022-09-29T00:02:56.421Z,2.25
2022-09-29T00:05:22.823Z,2.25
2022-09-29T00:07:49.202Z,2.55
2022-09-29T00:10:15.580Z,2.15
2022-09-29T00:12:41.983Z,2.30
2022-09-29T00:15:08.427Z,2.28
2022-09-29T00:17:34.822Z,2.10
2022-09-29T00:20:01.278Z,2.10
2022-09-29T00:22:27.550Z,2.42
2022-09-29T00:24:53.840Z,2.03
2022-09-29T00:27:20.339Z,1.83
2022-09-29T00:29:46.896Z,2.20
2022-09-29T00:32:13.483Z,2.30
2022-09-29T00:34:39.835Z,2.05
2022-09-29T00:37:06.195Z,2.30
2022-09-29T00:39:32.461Z,2.10
2022-09-29T00:41:58.775Z,2.03
2022-09-29T00:44:25.023Z,2.00
2022-09-29T00:46:54.438Z,2.20
2022-09-29T00:49:23.606Z,2.20
2022-09-29T00:52:13.056Z,2.10
2022-09-29T00:54:41.473Z,2.05
2022-09-29T00:57:08.856Z,1.85
2022-09-29T00:59:40.057Z,2.17
2022-09-29T01:02:06.453Z,2.20
2022-09-29T01:04:32.767Z,2.22
2022-09-29T01:06:59.215Z,1.90
2022-09-29T01:09:27.339Z,1.90
2022-09-29T01:11:58.052Z,1.90
2022-09-29T01:14:25.434Z,2.28
2022-09-29T01:16:51.755Z,1.95
2022-09-29T01:19:34.569Z,2.05
2022-09-29T01:24:42.439Z,2.13
2022-09-29T01:27:38.022Z,1.75
2022-09-29T01:30:04.309Z,2.30
2022-09-29T01:32:41.464Z,1.95
2022-09-29T01:35:13.483Z,1.88
2022-09-29T01:37:49.388Z,2.15
2022-09-29T01:40:22.682Z,1.83
2022-09-29T01:42:57.694Z,1.80
2022-09-29T01:45:23.995Z,2.10
2022-09-29T01:47:53.593Z,1.70
2022-09-29T01:50:27.194Z,1.73
2022-09-29T01:52:57.369Z,2.08
2022-09-29T01:55:25.351Z,2.10
2022-09-29T01:58:00.403Z,2.00
2022-09-29T02:00:31.691Z,1.90
2022-09-29T02:03:06.367Z,2.20
2022-09-29T02:05:32.640Z,2.10
2022-09-29T02:08:02.319Z,1.90
2022-09-29T02:10:32.226Z,2.10
2022-09-29T02:13:00.021Z,1.90
2022-09-29T02:15:28.479Z,2.03
2022-09-29T02:17:56.955Z,1.90
2022-09-29T02:20:24.322Z,1.77
2022-09-29T02:22:50.706Z,2.00
2022-09-29T02:25:18.965Z,2.13
2022-09-29T02:27:47.351Z,2.00
2022-09-29T02:30:13.753Z,2.08
2022-09-29T02:32:40.400Z,1.80
2022-09-29T02:35:08.404Z,2.10
2022-09-29T02:37:34.704Z,1.90
2022-09-29T02:40:16.233Z,1.90
2022-09-29T02:42:51.390Z,1.80
2022-09-29T02:45:33.535Z,2.10
2022-09-29T02:48:05.638Z,1.90
2022-09-29T02:50:40.818Z,2.00
2022-09-29T02:53:17.827Z,2.08
2022-09-29T02:55:49.686Z,1.90
2022-09-29T02:58:21.615Z,2.00
2022-09-29T03:00:48.217Z,2.00
2022-09-29T03:03:14.698Z,1.90
2022-09-29T03:05:41.052Z,1.90
2022-09-29T03:08:07.350Z,1.90
2022-09-29T03:10:33.621Z,1.80
2022-09-29T03:12:59.902Z,2.10
2022-09-29T03:15:26.178Z,2.00
2022-09-29T03:17:54.806Z,1.80
2022-09-29T03:20:21.384Z,2.00
2022-09-29T03:22:47.662Z,2.00
2022-09-29T03:25:14.605Z,1.60
2022-09-29T03:27:41.635Z,1.70
2022-09-29T03:30:08.406Z,1.73
2022-09-29T03:32:34.687Z,2.03
2022-09-29T03:35:00.966Z,2.00
2022-09-29T03:37:27.242Z,2.13
2022-09-29T03:39:53.510Z,1.83
2022-09-29T03:42:22.647Z,1.90
2022-09-29T03:44:48.993Z,1.92
2022-09-29T03:47:15.291Z,1.90
2022-09-29T03:49:41.558Z,2.00
2022-09-29T03:52:07.837Z,1.90
2022-09-29T03:54:34.111Z,1.75
2022-09-29T03:57:00.406Z,1.92
2022-09-29T03:59:26.670Z,2.10
2022-09-29T04:01:52.991Z,1.80
2022-09-29T04:04:19.280Z,1.85
2022-09-29T04:06:45.563Z,1.80
2022-09-29T04:09:11.919Z,1.65
2022-09-29T04:11:38.243Z,1.85
2022-09-29T04:14:04.608Z,1.80
2022-09-29T04:16:31.278Z,1.75
2022-09-29T04:18:57.662Z,1.90
2022-09-29T04:21:24.010Z,1.80
2022-09-29T04:23:50.309Z,2.00
2022-09-29T04:26:17.075Z,1.70
2022-09-29T04:28:43.378Z,1.95
2022-09-29T04:31:09.777Z,1.65
2022-09-29T04:33:36.129Z,1.92
2022-09-29T04:36:02.787Z,1.80
2022-09-29T04:38:29.539Z,1.80
2022-09-29T04:40:55.954Z,2.08
2022-09-29T04:43:22.394Z,2.10
2022-09-29T04:45:48.762Z,2.10
2022-09-29T04:48:15.075Z,2.03
2022-09-29T04:50:41.385Z,2.08
2022-09-29T04:53:08.014Z,1.98
2022-09-29T04:55:34.365Z,2.00
2022-09-29T04:58:01.085Z,1.80
2022-09-29T05:00:27.383Z,1.75
2022-09-29T05:02:53.824Z,1.95
2022-09-29T05:05:20.187Z,2.15
2022-09-29T05:07:48.035Z,2.22
2022-09-29T05:10:14.307Z,2.03
2022-09-29T05:12:40.667Z,2.03
2022-09-29T05:15:07.901Z,2.30
2022-09-29T05:17:34.364Z,2.05
2022-09-29T05:20:00.706Z,2.20
2022-09-29T05:22:27.192Z,2.13
2022-09-29T05:24:53.478Z,1.90
2022-09-29T05:27:20.154Z,1.98
2022-09-29T05:29:46.444Z,2.25
2022-09-29T05:32:12.873Z,1.92
2022-09-29T05:34:39.420Z,1.95
2022-09-29T05:37:05.759Z,2.30
2022-09-29T05:39:34.457Z,2.38
2022-09-29T05:42:02.239Z,2.20
2022-09-29T05:44:28.796Z,2.08
2022-09-29T05:46:55.152Z,2.42
2022-09-29T05:49:21.427Z,2.33
2022-09-29T05:51:47.833Z,2.47
2022-09-29T05:54:14.121Z,2.40
2022-09-29T05:56:45.046Z,2.33
2022-09-29T05:59:11.804Z,2.10
2022-09-29T06:01:38.177Z,2.13
2022-09-29T06:04:04.602Z,2.33
2022-09-29T06:06:30.918Z,2.70
2022-09-29T06:08:57.915Z,2.10
2022-09-29T06:11:25.917Z,2.28
2022-09-29T06:13:52.927Z,2.67
2022-09-29T06:16:20.389Z,2.67
2022-09-29T06:18:47.351Z,2.55
2022-09-29T06:21:14.962Z,2.40
2022-09-29T06:23:41.470Z,2.47
2022-09-29T06:26:09.178Z,2.67
2022-09-29T06:28:35.886Z,2.70
2022-09-29T06:31:03.433Z,2.60
2022-09-29T06:33:30.530Z,3.10
2022-09-29T06:36:15.944Z,2.67
2022-09-29T06:38:42.372Z,2.50
2022-09-29T06:41:09.129Z,2.75
2022-09-29T06:43:35.567Z,2.63
2022-09-29T06:46:02.235Z,3.40
2022-09-29T06:48:29.764Z,2.72
2022-09-29T06:51:06.418Z,2.60
2022-09-29T06:53:38.576Z,2.70
2022-09-29T06:56:05.369Z,3.00
2022-09-29T06:58:31.740Z,2.55
2022-09-29T07:01:01.694Z,2.67
2022-09-29T07:03:28.818Z,2.83
2022-09-29T07:06:18.094Z,2.80
2022-09-29T07:08:42.882Z,2.75
2022-09-29T07:11:09.638Z,3.00
2022-09-29T07:13:36.262Z,2.42
2022-09-29T07:16:09.534Z,2.58
2022-09-29T07:18:37.686Z,2.92
2022-09-29T07:21:05.007Z,3.00
2022-09-29T07:23:31.563Z,3.08
2022-09-29T07:25:57.999Z,3.00
2022-09-29T07:28:24.294Z,3.10
2022-09-29T07:31:13.036Z,3.03
2022-09-29T07:33:41.109Z,3.25
2022-09-29T07:36:07.809Z,3.35
2022-09-29T07:38:34.106Z,3.22
2022-09-29T07:41:02.251Z,3.13
2022-09-29T07:43:29.442Z,3.42
2022-09-29T07:45:56.153Z,3.42
2022-09-29T07:48:22.917Z,3.45
2022-09-29T07:50:49.261Z,3.50
2022-09-29T07:53:15.566Z,3.35
2022-09-29T07:55:41.884Z,3.20
2022-09-29T07:58:08.725Z,3.47
2022-09-29T08:00:35.209Z,3.22
2022-09-29T08:03:06.826Z,3.88
2022-09-29T08:05:33.939Z,3.92
2022-09-29T08:08:01.448Z,4.43
2022-09-29T08:10:28.524Z,4.70
2022-09-29T08:12:55.255Z,4.13
2022-09-29T08:15:21.866Z,8.98
2022-09-29T08:17:48.139Z,6.00
2022-09-29T08:20:14.789Z,5.63
2022-09-29T08:22:41.759Z,6.18
2022-09-29T08:25:08.075Z,6.05
2022-09-29T08:27:36.077Z,6.20
2022-09-29T08:30:03.351Z,6.32
2022-09-29T08:32:29.710Z,6.05
2022-09-29T08:34:55.991Z,5.82
2022-09-29T08:37:22.340Z,5.88
2022-09-29T08:39:48.781Z,6.20
2022-09-29T08:42:47.240Z,6.13
2022-09-29T08:45:25.369Z,6.55
2022-09-29T08:47:52.277Z,6.10
2022-09-29T08:50:24.755Z,6.93
2022-09-29T08:52:53.209Z,6.78
2022-09-29T08:55:21.979Z,6.90
2022-09-29T08:57:51.184Z,7.20
2022-09-29T09:00:18.237Z,6.93
2022-09-29T09:03:10.858Z,7.28
2022-09-29T09:05:40.168Z,6.80
2022-09-29T09:08:26.566Z,7.70
2022-09-29T09:11:25.800Z,8.38
2022-09-29T09:14:10.772Z,7.13
2022-09-29T09:16:47.431Z,11.20
2022-09-29T09:19:16.888Z,8.65
2022-09-29T09:21:44.281Z,9.07
2022-09-29T09:24:24.060Z,9.00
2022-09-29T09:26:51.828Z,9.20
2022-09-29T09:29:25.124Z,9.40
2022-09-29T09:31:54.384Z,9.23
2022-09-29T09:34:34.623Z,9.48
2022-09-29T09:37:26.062Z,10.68
2022-09-29T09:39:52.318Z,9.27
2022-09-29T09:42:22.252Z,9.82
2022-09-29T09:44:58.264Z,10.75
2022-09-29T09:47:26.917Z,10.05
2022-09-29T09:49:57.203Z,10.38
2022-09-29T09:52:44.789Z,10.48
2022-09-29T09:55:15.251Z,9.70
2022-09-29T09:57:44.516Z,19.05
2022-09-29T10:00:12.568Z,21.77
2022-09-29T10:02:46.511Z,22.17
2022-09-29T10:05:14.982Z,21.55
2022-09-29T10:07:41.690Z,22.77
2022-09-29T10:10:17.083Z,16.80
2022-09-29T10:12:43.558Z,17.75
2022-09-29T10:15:17.851Z,17.83
2022-09-29T10:17:46.549Z,19.20
2022-09-29T10:20:12.990Z,20.77
2022-09-29T10:22:39.261Z,20.73
2022-09-29T10:25:08.927Z,20.95
2022-09-29T10:27:36.001Z,20.40
2022-09-29T10:30:02.344Z,20.60
2022-09-29T10:32:38.566Z,20.98
2022-09-29T10:35:07.854Z,21.42
2022-09-29T10:37:36.340Z,22.40
2022-09-29T10:40:13.136Z,21.08
2022-09-29T10:42:40.895Z,22.33
2022-09-29T10:45:07.142Z,22.55
2022-09-29T10:47:34.226Z,21.45
2022-09-29T10:50:20.375Z,23.02
2022-09-29T10:52:52.656Z,21.35
2022-09-29T10:55:20.700Z,23.00
2022-09-29T10:57:48.157Z,20.02
2022-09-29T11:00:34.731Z,21.63
2022-09-29T11:03:21.307Z,21.48
2022-09-29T11:05:51.857Z,20.73
2022-09-29T11:08:19.551Z,20.35
2022-09-29T11:10:46.279Z,20.75
2022-09-29T11:13:24.740Z,20.67
2022-09-29T11:15:51.246Z,20.55
2022-09-29T11:18:19.615Z,19.20
2022-09-29T11:20:48.779Z,19.55
2022-09-29T11:23:24.179Z,19.10
2022-09-29T11:25:56.518Z,18.70
2022-09-29T11:28:40.250Z,17.25
2022-09-29T11:31:25.180Z,17.33
2022-09-29T11:34:03.476Z,16.63
2022-09-29T11:36:42.367Z,16.95
2022-09-29T11:39:29.235Z,16.50
2022-09-29T11:42:10.623Z,15.60
2022-09-29T11:44:36.894Z,14.85
2022-09-29T11:47:10.176Z,15.77
2022-09-29T11:51:09.235Z,15.20
2022-09-29T11:53:45.026Z,13.73
2022-09-29T11:56:14.750Z,14.10
2022-09-29T11:58:41.154Z,14.38
2022-09-29T12:01:22.542Z,13.40
2022-09-29T12:04:09.882Z,14.23
2022-09-29T12:06:42.209Z,12.20
2022-09-29T12:09:11.303Z,12.90
2022-09-29T12:12:05.367Z,14.00
2022-09-29T12:14:37.686Z,13.20
2022-09-29T12:17:12.551Z,13.35
2022-09-29T12:19:40.010Z,12.57
2022-09-29T12:22:09.002Z,12.65
2022-09-29T12:24:37.875Z,12.40
2022-09-29T12:27:06.659Z,11.52
2022-09-29T12:29:35.039Z,11.77
2022-09-29T12:32:04.959Z,11.50
2022-09-29T12:34:33.966Z,10.95
2022-09-29T12:37:07.608Z,10.50
2022-09-29T12:39:45.902Z,10.57
2022-09-29T12:42:21.247Z,10.68
2022-09-29T12:44:48.275Z,9.20
2022-09-29T12:47:29.631Z,10.23
2022-09-29T12:50:25.375Z,8.95
2022-09-29T12:52:55.174Z,10.07
2022-09-29T12:55:30.529Z,9.25
2022-09-29T12:57:58.499Z,9.85
2022-09-29T13:00:25.331Z,10.18
2022-09-29T13:03:06.677Z,8.98
2022-09-29T13:05:51.485Z,7.88
2022-09-29T13:08:23.541Z,7.78
2022-09-29T13:10:55.771Z,8.23
2022-09-29T13:15:51.404Z,7.40
2022-09-29T13:18:17.782Z,7.43
2022-09-29T13:21:03.928Z,7.25
2022-09-29T13:23:31.446Z,7.35
2022-09-29T13:26:00.818Z,6.55
2022-09-29T13:28:36.091Z,6.57
2022-09-29T13:31:04.458Z,5.97
2022-09-29T13:33:31.192Z,6.13
2022-09-29T13:35:57.953Z,6.18
2022-09-29T13:38:25.618Z,6.07
2022-09-29T13:41:10.195Z,5.30
2022-09-29T13:43:42.994Z,6.20
2022-09-29T13:46:27.980Z,6.07
2022-09-29T13:49:02.514Z,6.40
2022-09-29T13:51:41.861Z,6.03
2022-09-29T13:54:27.464Z,6.18
2022-09-29T13:57:06.021Z,5.30
2022-09-29T13:59:33.070Z,5.78
2022-09-29T14:01:59.739Z,4.68
2022-09-29T14:04:49.194Z,5.28
2022-09-29T14:07:34.777Z,4.78
2022-09-29T14:10:05.575Z,4.65
2022-09-29T14:12:34.232Z,4.88
2022-09-29T14:15:00.857Z,4.05
2022-09-29T14:17:31.528Z,4.90
2022-09-29T14:20:17.116Z,4.68
2022-09-29T14:22:43.374Z,4.18
2022-09-29T14:25:12.979Z,4.53
2022-09-29T14:27:39.293Z,4.28
2022-09-29T14:30:19.876Z,4.07
2022-09-29T14:32:52.131Z,4.07
2022-09-29T14:35:34.886Z,4.10
2022-09-29T14:40:30.647Z,3.97
2022-09-29T14:43:14.365Z,3.58
2022-09-29T14:46:19.308Z,3.53
2022-09-29T14:49:24.203Z,3.50
2022-09-29T14:51:59.834Z,3.38
2022-09-29T14:54:31.962Z,3.15
2022-09-29T14:56:58.218Z,2.70
2022-09-29T14:59:27.627Z,2.60
2022-09-29T15:02:00.726Z,3.10
2022-09-29T15:04:29.046Z,3.15
2022-09-29T15:06:55.364Z,3.15
2022-09-29T15:09:21.960Z,2.90
2022-09-29T15:11:50.144Z,2.58
2022-09-29T15:14:41.561Z,2.83
2022-09-29T15:17:30.438Z,3.00
2022-09-29T15:19:59.559Z,2.58
2022-09-29T15:22:37.775Z,2.83
2022-09-29T15:25:18.240Z,2.30
2022-09-29T15:27:46.724Z,2.50
2022-09-29T15:30:18.281Z,2.33
2022-09-29T15:32:45.579Z,2.72
2022-09-29T15:35:14.052Z,2.47
2022-09-29T15:37:49.642Z,2.55
2022-09-29T15:40:17.011Z,2.30
2022-09-29T15:42:43.836Z,2.17
2022-09-29T15:45:15.844Z,2.20
2022-09-29T15:47:42.293Z,2.35
2022-09-29T15:50:19.412Z,2.15
2022-09-29T15:52:46.147Z,1.98
2022-09-29T15:55:15.995Z,2.05
2022-09-29T15:57:43.870Z,2.20
2022-09-29T16:00:22.081Z,2.45
2022-09-29T16:02:49.908Z,2.15
2022-09-29T16:05:19.254Z,1.73
2022-09-29T16:07:50.769Z,1.90
2022-09-29T16:10:18.971Z,1.88
2022-09-29T16:12:52.904Z,1.90
2022-09-29T16:15:24.862Z,2.10
2022-09-29T16:17:51.408Z,1.90
2022-09-29T16:20:23.464Z,1.80
2022-09-29T16:22:49.776Z,1.65
2022-09-29T16:25:26.944Z,1.83
2022-09-29T16:27:54.730Z,1.73
2022-09-29T16:30:23.895Z,1.63
2022-09-29T16:32:54.688Z,1.90
2022-09-29T16:35:39.039Z,1.80
2022-09-29T16:38:09.737Z,1.80
2022-09-29T16:40:39.929Z,1.63
2022-09-29T16:43:06.407Z,1.90
2022-09-29T16:45:32.718Z,1.80
2022-09-29T16:47:59.579Z,1.80
2022-09-29T16:50:26.182Z,1.70
2022-09-29T16:52:52.514Z,1.50
2022-09-29T16:55:19.803Z,1.55
2022-09-29T16:58:04.874Z,1.98
2022-09-29T17:00:31.254Z,1.60
2022-09-29T17:02:57.861Z,1.90
2022-09-29T17:05:24.971Z,1.70
2022-09-29T17:07:59.780Z,1.85
2022-09-29T17:10:26.126Z,1.70
2022-09-29T17:12:52.415Z,1.58
2022-09-29T17:15:18.713Z,1.30
2022-09-29T17:17:46.378Z,1.95
2022-09-29T17:20:13.600Z,1.60
2022-09-29T17:22:39.927Z,1.70
2022-09-29T17:25:06.839Z,1.65
2022-09-29T17:27:52.134Z,1.80
2022-09-29T17:30:22.571Z,1.70
2022-09-29T17:32:49.407Z,1.50
2022-09-29T17:35:16.625Z,1.60
2022-09-29T17:37:53.392Z,1.60
2022-09-29T17:40:29.005Z,1.67
2022-09-29T17:42:59.775Z,1.63
2022-09-29T17:45:26.760Z,1.60
2022-09-29T17:47:54.265Z,1.90
2022-09-29T17:50:25.123Z,1.90
2022-09-29T17:52:52.108Z,1.60
2022-09-29T17:55:18.499Z,1.80
2022-09-29T17:57:47.419Z,1.70
2022-09-29T18:00:15.026Z,1.83
2022-09-29T18:02:41.441Z,1.67
2022-09-29T18:05:08.581Z,2.10
2022-09-29T18:07:34.857Z,2.13
2022-09-29T18:10:01.152Z,3.00
2022-09-29T18:12:27.458Z,2.55
2022-09-29T18:14:53.733Z,2.17
2022-09-29T18:17:20.178Z,2.53
2022-09-29T18:19:46.895Z,2.58
2022-09-29T18:22:13.182Z,2.53
2022-09-29T18:24:39.485Z,2.60
2022-09-29T18:27:05.931Z,2.60
2022-09-29T18:29:32.253Z,2.35
2022-09-29T18:31:59.326Z,2.25
2022-09-29T18:34:26.736Z,2.35
2022-09-29T18:36:53.060Z,2.38
2022-09-29T18:39:19.400Z,2.60
2022-09-29T18:41:45.707Z,2.80
2022-09-29T18:44:13.266Z,3.03
2022-09-29T18:46:40.018Z,2.70
2022-09-29T18:49:06.428Z,2.70
2022-09-29T18:51:34.111Z,3.22
2022-09-29T18:54:00.431Z,3.00
2022-09-29T18:56:26.878Z,2.83
2022-09-29T18:58:53.195Z,2.78
2022-09-29T19:01:22.984Z,3.15
2022-09-29T19:03:49.385Z,2.65
2022-09-29T19:06:15.951Z,2.88
2022-09-29T19:08:44.299Z,3.25
2022-09-29T19:11:17.294Z,2.85
2022-09-29T19:13:43.558Z,3.28
2022-09-29T19:16:09.877Z,3.50
2022-09-29T19:18:36.222Z,3.55
2022-09-29T19:21:03.823Z,3.70
2022-09-29T19:23:30.898Z,3.10
2022-09-29T19:25:58.429Z,3.78
2022-09-29T19:28:27.058Z,3.70
2022-09-29T19:30:54.658Z,3.42
2022-09-29T19:33:21.791Z,3.83
2022-09-29T19:35:50.543Z,3.38
2022-09-29T19:38:17.734Z,3.20
2022-09-29T19:40:45.221Z,4.03
2022-09-29T19:43:13.079Z,3.67
2022-09-29T19:45:39.511Z,3.92
2022-09-29T19:48:06.480Z,4.05
2022-09-29T19:50:51.809Z,4.18
2022-09-29T19:53:18.153Z,4.18
2022-09-29T19:55:45.359Z,4.47
2022-09-29T19:58:11.704Z,4.00
2022-09-29T20:00:40.627Z,4.40
2022-09-29T20:03:07.537Z,4.80
2022-09-29T20:05:34.265Z,4.97
2022-09-29T20:08:02.003Z,4.53
2022-09-29T20:10:29.125Z,4.95
2022-09-29T20:12:56.130Z,4.75
2022-09-29T20:15:22.630Z,4.55
2022-09-29T20:17:49.167Z,4.90
2022-09-29T20:20:15.961Z,4.88
2022-09-29T20:22:43.165Z,4.60
2022-09-29T20:25:10.018Z,4.53
2022-09-29T20:27:36.686Z,4.80
2022-09-29T20:30:05.005Z,5.22
2022-09-29T20:32:31.871Z,5.05
2022-09-29T20:34:58.143Z,4.95
2022-09-29T20:37:25.373Z,4.97
2022-09-29T20:39:52.062Z,5.93
2022-09-29T20:42:18.377Z,5.50
2022-09-29T20:44:44.681Z,5.22
2022-09-29T20:47:11.148Z,5.40
2022-09-29T20:49:39.068Z,5.00
2022-09-29T20:52:05.915Z,5.38
2022-09-29T20:54:32.959Z,6.00
2022-09-29T20:57:00.371Z,5.97
2022-09-29T20:59:26.693Z,5.95
2022-09-29T21:01:53.583Z,5.40
2022-09-29T21:04:21.039Z,5.80
2022-09-29T21:06:49.114Z,6.28
2022-09-29T21:09:17.123Z,6.05
2022-09-29T21:11:44.252Z,6.03
2022-09-29T21:14:11.562Z,5.90
2022-09-29T21:16:41.638Z,5.93
2022-09-29T21:19:08.465Z,5.60
2022-09-29T21:21:35.007Z,7.07
2022-09-29T21:24:02.575Z,6.60
2022-09-29T21:26:30.020Z,6.50
2022-09-29T21:28:57.467Z,6.93
2022-09-29T21:31:25.063Z,7.40
2022-09-29T21:33:54.307Z,7.47
2022-09-29T21:36:21.306Z,6.53
2022-09-29T21:38:47.956Z,7.28
2022-09-29T21:41:15.946Z,7.05
2022-09-29T21:43:45.594Z,6.88
2022-09-29T21:46:13.088Z,7.18
2022-09-29T21:48:42.827Z,7.28
2022-09-29T21:51:14.338Z,7.28
2022-09-29T21:53:41.246Z,7.43
2022-09-29T21:56:07.515Z,7.22
2022-09-29T21:58:34.016Z,8.13
2022-09-29T22:01:00.323Z,7.93
2022-09-29T22:03:29.344Z,8.98
2022-09-29T22:05:55.615Z,8.35
2022-09-29T22:08:24.576Z,8.20
2022-09-29T22:10:51.677Z,8.00
2022-09-29T22:13:18.390Z,8.63
2022-09-29T22:15:45.437Z,8.60
2022-09-29T22:18:12.102Z,9.23
2022-09-29T22:20:38.567Z,8.95
2022-09-29T22:23:05.483Z,8.73
2022-09-29T22:25:33.188Z,9.38
2022-09-29T22:27:59.638Z,8.80
2022-09-29T22:30:27.095Z,8.52
2022-09-29T22:32:53.723Z,9.02
2022-09-29T22:35:21.423Z,9.70
2022-09-29T22:37:47.727Z,8.80
2022-09-29T22:40:14.011Z,9.13
2022-09-29T22:42:40.306Z,8.82
2022-09-29T22:45:06.783Z,8.88
2022-09-29T22:47:33.123Z,9.25
2022-09-29T22:49:59.405Z,8.90
2022-09-29T22:52:25.695Z,8.35
2022-09-29T22:54:51.996Z,8.90
2022-09-29T22:57:18.288Z,9.18
2022-09-29T22:59:44.567Z,8.75
2022-09-29T23:02:10.938Z,8.55
2022-09-29T23:04:37.296Z,8.57
2022-09-29T23:07:03.627Z,8.45
2022-09-29T23:09:29.990Z,8.60
2022-09-29T23:11:56.387Z,8.65
2022-09-29T23:14:22.778Z,7.85
2022-09-29T23:16:49.074Z,8.80
2022-09-29T23:19:15.548Z,9.10
2022-09-29T23:21:41.864Z,8.02
2022-09-29T23:24:08.214Z,7.63
2022-09-29T23:26:34.489Z,8.07
2022-09-29T23:29:00.879Z,7.80
2022-09-29T23:31:27.437Z,7.53
2022-09-29T23:33:57.699Z,7.25
2022-09-29T23:36:25.210Z,7.25
2022-09-29T23:39:09.753Z,7.53
2022-09-29T23:41:41.279Z,7.40
2022-09-29T23:44:07.700Z,6.88
2022-09-29T23:46:34.934Z,7.07
2022-09-29T23:49:02.057Z,6.78
2022-09-29T23:51:32.036Z,7.07
2022-09-29T23:53:59.173Z,6.53
2022-09-29T23:56:26.311Z,6.57
2022-09-29T23:58:52.593Z,6.20
